createdAt,value
2024-02-24T00:00:20.791Z,100025.25
2024-02-24T00:00:53.196Z,100013.72
2024-02-24T00:01:28.049Z,100007.31
2024-02-24T00:02:00.323Z,100006.25
2024-02-24T00:02:35.353Z,100030.38
2024-02-24T00:03:08.270Z,100016.41
2024-02-24T00:03:43.216Z,100013.72
2024-02-24T00:04:15.673Z,100001.47
2024-02-24T00:04:48.098Z,100022.09
2024-02-24T00:05:20.627Z,100016.75
2024-02-24T00:05:55.461Z,100012.97
2024-02-24T00:06:27.862Z,100014.88
2024-02-24T00:07:00.114Z,100012.19
2024-02-24T00:07:32.428Z,100007.63
2024-02-24T00:08:08.825Z,100016.47
2024-02-24T00:08:41.276Z,100017.56
2024-02-24T00:09:13.535Z,100020.22
2024-02-24T00:09:45.872Z,100013.56
2024-02-24T00:10:20.733Z,100024.28
2024-02-24T00:10:53.029Z,100017.03
2024-02-24T00:11:25.599Z,100024.03
2024-02-24T00:11:58.047Z,100026.94
2024-02-24T00:12:32.915Z,100007.38
2024-02-24T00:13:05.335Z,100024.28
2024-02-24T00:13:37.909Z,100017.84
2024-02-24T00:14:10.373Z,100033.38
2024-02-24T00:14:45.293Z,100014.59
2024-02-24T00:15:17.795Z,100024.50
2024-02-24T00:15:50.023Z,100026.94
2024-02-24T00:16:24.798Z,100016.22
2024-02-24T00:16:57.145Z,100026.38
2024-02-24T00:17:29.820Z,100026.13
2024-02-24T00:18:05.982Z,100021.59
2024-02-24T00:18:41.346Z,100016.22
2024-02-24T00:19:13.701Z,100019.97
2024-02-24T00:19:48.328Z,100014.59
2024-02-24T00:20:20.748Z,100028.00
2024-02-24T00:20:52.930Z,100024.50
2024-02-24T00:21:28.408Z,100031.19
2024-02-24T00:22:00.867Z,100020.47
2024-02-24T00:22:33.255Z,100024.44
2024-02-24T00:23:05.830Z,100022.84
2024-02-24T00:23:40.681Z,100021.19
2024-02-24T00:24:13.083Z,100026.78
2024-02-24T00:24:45.336Z,100016.06
2024-02-24T00:25:17.549Z,100010.69
2024-02-24T00:25:52.369Z,100012.56
2024-02-24T00:26:24.669Z,100012.84
2024-02-24T00:26:56.900Z,100029.22
2024-02-24T00:27:29.276Z,100027.94
2024-02-24T00:28:04.165Z,100023.38
2024-02-24T00:28:36.604Z,100016.97
2024-02-24T00:29:08.891Z,100023.97
2024-02-24T00:29:43.873Z,100017.56
2024-02-24T00:30:16.846Z,100022.91
2024-02-24T00:30:49.077Z,100015.94
2024-02-24T00:31:21.366Z,100024.78
2024-02-24T00:31:56.333Z,100038.19
2024-02-24T00:32:28.778Z,100026.66
2024-02-24T00:33:01.357Z,100027.69
2024-02-24T00:33:40.754Z,100030.38
2024-02-24T00:34:13.989Z,100035.09
2024-02-24T00:34:46.339Z,100019.81
2024-02-24T00:35:20.184Z,100046.63
2024-02-24T00:35:55.055Z,100037.50
2024-02-24T00:36:27.358Z,100035.91
2024-02-24T00:36:59.769Z,100028.66
2024-02-24T00:37:32.105Z,100035.91
2024-02-24T00:38:04.517Z,100041.25
2024-02-24T00:38:39.996Z,100034.28
2024-02-24T00:39:14.389Z,100039.88
2024-02-24T00:39:46.821Z,100025.66
2024-02-24T00:40:19.125Z,100026.69
2024-02-24T00:40:56.231Z,100020.06
2024-02-24T00:41:28.456Z,100035.56
2024-02-24T00:42:00.877Z,100011.44
2024-02-24T00:42:33.261Z,100024.28
2024-02-24T00:43:05.687Z,100026.47
2024-02-24T00:43:42.936Z,100019.81
2024-02-24T00:44:17.753Z,100031.31
2024-02-24T00:44:50.039Z,100016.06
2024-02-24T00:45:22.557Z,100013.38
2024-02-24T00:45:57.390Z,100017.91
2024-02-24T00:46:29.595Z,100021.19
2024-02-24T00:47:01.818Z,100021.19
2024-02-24T00:47:34.231Z,100012.13
2024-02-24T00:48:09.981Z,100019.88
2024-02-24T00:48:45.070Z,100026.34
2024-02-24T00:49:17.420Z,100025.53
2024-02-24T00:49:49.895Z,100009.44
2024-02-24T00:50:30.448Z,100016.41
2024-02-24T00:51:03.047Z,100032.47
2024-02-24T00:51:36.961Z,100020.97
2024-02-24T00:52:09.204Z,100020.38
2024-02-24T00:52:44.308Z,100016.41
2024-02-24T00:53:16.712Z,100008.13
2024-02-24T00:53:49.892Z,100019.66
2024-02-24T00:54:24.733Z,100020.16
2024-02-24T00:54:57.014Z,100017.47
2024-02-24T00:55:29.373Z,100027.94
2024-02-24T00:56:01.548Z,100010.25
2024-02-24T00:56:36.528Z,100018.84
2024-02-24T00:57:08.835Z,100016.97
2024-02-24T00:57:41.134Z,100019.41
2024-02-24T00:58:13.729Z,100025.81
2024-02-24T00:58:51.627Z,100022.34
2024-02-24T00:59:24.817Z,100010.25
2024-02-24T00:59:57.200Z,100014.81
2024-02-24T01:00:29.746Z,100015.81
2024-02-24T01:01:04.615Z,100017.47
2024-02-24T01:01:36.882Z,100008.59
2024-02-24T01:02:09.938Z,100016.41
2024-02-24T01:02:42.361Z,100011.84
2024-02-24T01:03:17.375Z,100016.16
2024-02-24T01:03:52.366Z,100014.28
2024-02-24T01:04:26.914Z,100014.28
2024-02-24T01:04:59.930Z,100014.88
2024-02-24T01:05:34.795Z,100018.34
2024-02-24T01:06:07.139Z,100013.78
2024-02-24T01:06:39.324Z,100028.88
2024-02-24T01:07:13.934Z,100017.56
2024-02-24T01:07:49.068Z,100019.41
2024-02-24T01:08:21.883Z,100022.34
2024-02-24T01:08:54.287Z,100033.28
2024-02-24T01:09:29.335Z,100018.28
2024-02-24T01:10:01.723Z,100030.03
2024-02-24T01:10:34.091Z,100027.59
2024-02-24T01:11:07.869Z,100023.03
2024-02-24T01:11:43.804Z,100017.91
2024-02-24T01:12:16.255Z,100038.00
2024-02-24T01:12:48.774Z,100025.91
2024-02-24T01:13:21.534Z,100028.59
2024-02-24T01:13:57.575Z,100024.03
2024-02-24T01:14:30.366Z,100023.25
2024-02-24T01:15:02.972Z,100025.09
2024-02-24T01:15:35.632Z,100019.75
2024-02-24T01:16:10.879Z,100023.25
2024-02-24T01:16:45.758Z,100021.63
2024-02-24T01:17:18.165Z,100034.75
2024-02-24T01:17:52.252Z,100029.38
2024-02-24T01:18:29.049Z,100019.75
2024-02-24T01:19:07.255Z,100017.31
2024-02-24T01:19:39.697Z,100021.84
2024-02-24T01:20:14.933Z,100026.97
2024-02-24T01:20:49.897Z,100021.63
2024-02-24T01:21:22.724Z,100028.59
2024-02-24T01:22:00.015Z,100027.53
2024-02-24T01:22:32.399Z,100027.78
2024-02-24T01:23:05.019Z,100025.09
2024-02-24T01:23:37.360Z,100017.88
2024-02-24T01:24:12.191Z,100031.00
2024-02-24T01:24:44.754Z,100026.47
2024-02-24T01:25:17.320Z,100028.09
2024-02-24T01:25:49.492Z,100020.88
2024-02-24T01:26:24.276Z,100020.88
2024-02-24T01:26:56.585Z,100027.28
2024-02-24T01:27:28.785Z,100028.09
2024-02-24T01:28:01.498Z,100024.38
2024-02-24T01:28:38.122Z,100021.91
2024-02-24T01:29:10.463Z,100029.16
2024-02-24T01:29:42.787Z,100021.09
2024-02-24T01:30:15.367Z,100024.59
2024-02-24T01:30:51.836Z,100023.56
2024-02-24T01:31:24.055Z,100023.56
2024-02-24T01:32:00.783Z,100029.97
2024-02-24T01:32:35.801Z,100025.66
2024-02-24T01:33:11.284Z,100031.81
2024-02-24T01:33:43.718Z,100024.84
2024-02-24T01:34:18.714Z,100031.81
2024-02-24T01:34:53.492Z,100026.69
2024-02-24T01:35:25.768Z,100031.28
2024-02-24T01:35:58.157Z,100020.56
2024-02-24T01:36:30.479Z,100027.53
2024-02-24T01:37:05.351Z,100025.66
2024-02-24T01:37:38.927Z,100024.84
2024-02-24T01:38:11.891Z,100023.25
2024-02-24T01:38:44.258Z,100025.91
2024-02-24T01:39:19.176Z,100019.47
2024-02-24T01:39:51.512Z,100028.59
2024-02-24T01:40:23.893Z,100010.91
2024-02-24T01:40:58.743Z,100025.91
2024-02-24T01:41:31.086Z,100024.84
2024-02-24T01:42:03.556Z,100022.97
2024-02-24T01:42:35.832Z,100021.34
2024-02-24T01:43:26.345Z,100021.63
2024-02-24T01:43:58.849Z,100029.06
2024-02-24T01:44:31.349Z,100022.91
2024-02-24T01:45:06.384Z,100039.78
2024-02-24T01:45:38.696Z,100028.25
2024-02-24T01:46:14.783Z,100021.31
2024-02-24T01:46:47.517Z,100024.22
2024-02-24T01:47:24.906Z,100031.22
2024-02-24T01:47:58.500Z,100020.50
2024-02-24T01:48:32.181Z,100018.88
2024-02-24T01:49:04.729Z,100028.53
2024-02-24T01:49:44.080Z,100008.16
2024-02-24T01:50:18.069Z,100020.16
2024-02-24T01:50:51.345Z,100019.91
2024-02-24T01:51:23.666Z,100024.22
2024-02-24T01:51:58.519Z,100032.25
2024-02-24T01:52:31.287Z,100027.94
2024-02-24T01:53:04.324Z,100034.13
2024-02-24T01:53:38.432Z,100025.28
2024-02-24T01:54:11.374Z,100027.94
2024-02-24T01:54:46.494Z,100030.63
2024-02-24T01:55:20.310Z,100030.63
2024-02-24T01:55:53.132Z,100022.59
2024-02-24T01:56:26.424Z,100034.34
2024-02-24T01:57:02.653Z,100026.59
2024-02-24T01:57:42.073Z,100028.19
2024-02-24T01:58:15.868Z,100026.81
2024-02-24T01:58:50.758Z,100024.16
2024-02-24T01:59:23.293Z,100025.19
2024-02-24T01:59:56.359Z,100019.84
2024-02-24T02:00:29.059Z,100018.22
2024-02-24T02:01:04.449Z,100023.56
2024-02-24T02:01:37.874Z,100019.28
2024-02-24T02:02:10.307Z,100021.69
2024-02-24T02:02:42.663Z,100017.16
2024-02-24T02:03:17.815Z,100021.47
2024-02-24T02:03:51.601Z,100019.59
2024-02-24T02:04:23.974Z,100008.88
2024-02-24T02:04:58.846Z,100014.47
2024-02-24T02:05:35.964Z,100016.09
2024-02-24T02:06:08.421Z,100011.31
2024-02-24T02:06:40.868Z,100017.22
2024-02-24T02:07:13.312Z,100016.72
2024-02-24T02:07:48.139Z,100013.81
2024-02-24T02:08:20.398Z,100011.94
2024-02-24T02:08:52.718Z,100016.25
2024-02-24T02:09:27.566Z,100015.44
2024-02-24T02:10:01.231Z,100017.31
2024-02-24T02:10:44.883Z,99999.88
2024-02-24T02:11:19.880Z,100010.25
2024-02-24T02:12:02.722Z,100004.06
2024-02-24T02:12:37.465Z,100016.69
2024-02-24T02:13:09.787Z,100006.50
2024-02-24T02:13:44.673Z,100015.38
2024-02-24T02:14:16.976Z,100023.41
2024-02-24T02:14:51.039Z,100026.91
2024-02-24T02:15:23.384Z,100013.75
2024-02-24T02:16:00.678Z,100026.31
2024-02-24T02:16:33.090Z,100014.00
2024-02-24T02:17:05.388Z,100024.72
2024-02-24T02:17:39.753Z,100005.97
2024-02-24T02:18:14.833Z,100023.91
2024-02-24T02:18:47.205Z,100014.00
2024-02-24T02:19:19.575Z,100018.56
2024-02-24T02:19:51.890Z,100012.38
2024-02-24T02:20:29.379Z,100019.59
2024-02-24T02:21:02.014Z,100019.84
2024-02-24T02:21:37.113Z,100016.09
2024-02-24T02:22:13.292Z,100006.44
2024-02-24T02:22:48.082Z,100002.13
2024-02-24T02:23:20.729Z,100008.88
2024-02-24T02:23:58.488Z,100018.28
2024-02-24T02:24:30.829Z,100021.78
2024-02-24T02:25:03.134Z,100018.28
2024-02-24T02:25:35.381Z,100017.22
2024-02-24T02:26:10.293Z,100014.06
2024-02-24T02:26:42.588Z,100018.34
2024-02-24T02:27:14.936Z,100018.13
2024-02-24T02:27:47.149Z,100021.63
2024-02-24T02:28:21.980Z,100024.28
2024-02-24T02:28:54.236Z,100022.66
2024-02-24T02:29:26.506Z,100019.16
2024-02-24T02:30:01.454Z,100024.53
2024-02-24T02:30:36.290Z,100026.16
2024-02-24T02:31:08.540Z,100013.00
2024-02-24T02:31:40.796Z,100015.69
2024-02-24T02:32:13.262Z,100014.63
2024-02-24T02:32:48.401Z,100022.66
2024-02-24T02:33:21.045Z,100028.25
2024-02-24T02:33:53.501Z,100021.03
2024-02-24T02:34:31.769Z,100021.31
2024-02-24T02:35:06.452Z,100025.03
2024-02-24T02:35:38.869Z,100025.03
2024-02-24T02:36:13.967Z,100020.22
2024-02-24T02:36:46.223Z,100030.69
2024-02-24T02:37:18.479Z,100019.16
2024-02-24T02:37:53.459Z,100025.34
2024-02-24T02:38:28.317Z,100025.34
2024-02-24T02:39:00.590Z,100028.84
2024-02-24T02:39:32.964Z,100030.69
2024-02-24T02:40:06.288Z,100027.78
2024-02-24T02:40:41.243Z,100025.56
2024-02-24T02:41:13.563Z,100030.94
2024-02-24T02:41:47.226Z,100033.16
2024-02-24T02:42:19.564Z,100029.88
2024-02-24T02:42:54.382Z,100033.38
2024-02-24T02:43:26.750Z,100037.69
2024-02-24T02:43:58.970Z,100030.69
2024-02-24T02:44:31.882Z,100039.56
2024-02-24T02:45:07.417Z,100026.16
2024-02-24T02:45:39.650Z,100033.38
2024-02-24T02:46:12.003Z,100030.47
2024-02-24T02:46:47.040Z,100039.31
2024-02-24T02:47:24.119Z,100040.09
2024-02-24T02:47:56.940Z,100035.25
2024-02-24T02:48:29.329Z,100043.06
2024-02-24T02:49:04.159Z,100033.97
2024-02-24T02:49:41.350Z,100034.75
2024-02-24T02:50:13.714Z,100042.22
2024-02-24T02:50:45.966Z,100045.72
2024-02-24T02:51:18.166Z,100035.25
2024-02-24T02:51:53.026Z,100044.34
2024-02-24T02:52:25.313Z,100042.97
2024-02-24T02:53:00.108Z,100047.00
2024-02-24T02:53:34.965Z,100038.66
2024-02-24T02:54:07.304Z,100050.44
2024-02-24T02:54:39.640Z,100050.69
2024-02-24T02:55:11.863Z,100045.56
2024-02-24T02:55:46.693Z,100048.25
2024-02-24T02:56:23.156Z,100041.28
2024-02-24T02:56:55.401Z,100044.75
2024-02-24T02:57:27.874Z,100047.75
2024-02-24T02:58:02.690Z,100038.44
2024-02-24T02:58:35.486Z,100035.75
2024-02-24T02:59:07.786Z,100040.28
2024-02-24T02:59:40.120Z,100041.91
2024-02-24T03:00:13.742Z,100036.81
2024-02-24T03:00:48.688Z,100045.06
2024-02-24T03:01:20.985Z,100031.94
2024-02-24T03:01:53.359Z,100042.41
2024-02-24T03:02:25.721Z,100030.09
2024-02-24T03:03:00.655Z,100039.25
2024-02-24T03:03:33.330Z,100064.91
2024-02-24T03:04:05.701Z,100054.75
2024-02-24T03:04:38.345Z,100046.94
2024-02-24T03:05:15.021Z,100055.25
2024-02-24T03:05:47.589Z,100056.53
2024-02-24T03:06:20.040Z,100048.75
2024-02-24T03:06:54.898Z,100045.25
2024-02-24T03:07:27.112Z,100057.03
2024-02-24T03:08:01.903Z,100055.16
2024-02-24T03:08:35.040Z,100074.00
2024-02-24T03:09:09.881Z,100046.63
2024-02-24T03:09:47.222Z,100061.81
2024-02-24T03:10:19.848Z,100059.41
2024-02-24T03:10:52.141Z,100061.25
2024-02-24T03:11:27.489Z,100048.91
2024-02-24T03:12:00.041Z,100061.50
2024-02-24T03:12:33.120Z,100058.81
2024-02-24T03:13:07.954Z,100063.94
2024-02-24T03:13:40.426Z,100078.38
2024-02-24T03:14:14.827Z,100047.06
2024-02-24T03:14:47.417Z,100049.19
2024-02-24T03:15:22.317Z,100050.78
2024-02-24T03:15:54.694Z,100053.22
2024-02-24T03:16:26.971Z,100057.25
2024-02-24T03:17:02.130Z,100055.41
2024-02-24T03:17:37.104Z,100063.19
2024-02-24T03:18:09.505Z,100051.44
2024-02-24T03:18:43.496Z,100056.78
2024-02-24T03:19:15.781Z,100046.91
2024-02-24T03:19:50.647Z,100060.03
2024-02-24T03:20:22.872Z,100058.38
2024-02-24T03:20:55.180Z,100049.56
2024-02-24T03:21:30.906Z,100046.09
2024-02-24T03:22:05.806Z,100057.03
2024-02-24T03:22:39.714Z,100051.91
2024-02-24T03:23:15.386Z,100052.72
2024-02-24T03:23:47.730Z,100050.78
2024-02-24T03:24:22.828Z,100059.63
2024-02-24T03:24:55.076Z,100056.72
2024-02-24T03:25:27.356Z,100059.72
2024-02-24T03:25:59.508Z,100064.84
2024-02-24T03:26:34.319Z,100052.25
2024-02-24T03:27:06.542Z,100058.38
2024-02-24T03:27:39.342Z,100053.03
2024-02-24T03:28:11.700Z,100055.72
2024-02-24T03:28:46.446Z,100058.66
2024-02-24T03:29:18.659Z,100050.84
2024-02-24T03:29:50.910Z,100051.91
2024-02-24T03:30:25.738Z,100051.34
2024-02-24T03:30:58.146Z,100056.94
2024-02-24T03:31:31.387Z,100059.63
2024-02-24T03:32:04.631Z,100056.13
2024-02-24T03:32:39.456Z,100061.75
2024-02-24T03:33:13.938Z,100058.72
2024-02-24T03:33:46.425Z,100056.56
2024-02-24T03:34:18.753Z,100057.06
2024-02-24T03:34:53.590Z,100058.09
2024-02-24T03:35:25.885Z,100048.44
2024-02-24T03:35:58.312Z,100051.13
2024-02-24T03:36:30.685Z,100057.28
2024-02-24T03:37:05.588Z,100057.06
2024-02-24T03:37:37.886Z,100054.94
2024-02-24T03:38:10.251Z,100063.53
2024-02-24T03:38:45.447Z,100057.13
2024-02-24T03:39:23.042Z,100054.09
2024-02-24T03:39:55.417Z,100062.16
2024-02-24T03:40:27.647Z,100064.81
2024-02-24T03:40:59.861Z,100067.50
2024-02-24T03:41:35.381Z,100064.59
2024-02-24T03:42:07.771Z,100058.41
2024-02-24T03:42:40.041Z,100065.63
2024-02-24T03:43:12.491Z,100064.81
2024-02-24T03:43:47.299Z,100071.50
2024-02-24T03:44:21.761Z,100062.88
2024-02-24T03:44:54.200Z,100068.22
2024-02-24T03:45:29.147Z,100063.97
2024-02-24T03:46:03.687Z,100049.75
2024-02-24T03:46:35.984Z,100060.69
2024-02-24T03:47:10.890Z,100051.84
2024-02-24T03:47:43.949Z,100061.75
2024-02-24T03:48:17.177Z,100059.06
2024-02-24T03:48:52.439Z,100072.00
2024-02-24T03:49:25.057Z,100069.03
2024-02-24T03:49:57.348Z,100058.34
2024-02-24T03:50:29.806Z,100060.19
2024-02-24T03:51:04.718Z,100063.69
2024-02-24T03:51:36.998Z,100059.41
2024-02-24T03:52:10.685Z,100064.28
2024-02-24T03:52:42.909Z,100068.81
2024-02-24T03:53:19.960Z,100072.84
2024-02-24T03:53:54.893Z,100074.75
2024-02-24T03:54:27.361Z,100082.22
2024-02-24T03:54:59.676Z,100075.00
2024-02-24T03:55:34.503Z,100055.19
2024-02-24T03:56:07.408Z,100071.50
2024-02-24T03:56:39.824Z,100080.34
2024-02-24T03:57:12.052Z,100078.47
2024-02-24T03:57:46.921Z,100074.16
2024-02-24T03:58:19.861Z,100070.69
2024-02-24T03:58:52.088Z,100081.88
2024-02-24T03:59:24.301Z,100086.44
2024-02-24T04:00:00.917Z,100070.38
2024-02-24T04:00:36.568Z,100082.94
2024-02-24T04:01:09.413Z,100082.69
2024-02-24T04:01:42.219Z,100076.28
2024-02-24T04:02:17.140Z,100083.25
2024-02-24T04:02:49.464Z,100083.25
2024-02-24T04:03:22.463Z,100079.53
2024-02-24T04:03:55.480Z,100073.13
2024-02-24T04:04:30.355Z,100072.84
2024-02-24T04:05:03.904Z,100069.94
2024-02-24T04:05:36.202Z,100078.22
2024-02-24T04:06:09.500Z,100077.16
2024-02-24T04:06:48.963Z,100068.59
2024-02-24T04:07:21.293Z,100071.72
2024-02-24T04:07:56.632Z,100077.09
2024-02-24T04:08:28.962Z,100074.41
2024-02-24T04:09:09.992Z,100067.19
2024-02-24T04:09:42.245Z,100069.31
2024-02-24T04:10:14.604Z,100075.47
2024-02-24T04:10:46.909Z,100067.69
2024-02-24T04:11:21.888Z,100080.03
2024-02-24T04:11:54.362Z,100064.19
2024-02-24T04:12:26.763Z,100072.00
2024-02-24T04:12:59.149Z,100080.25
2024-02-24T04:13:36.691Z,100071.19
2024-02-24T04:14:11.317Z,100085.63
2024-02-24T04:14:43.956Z,100070.59
2024-02-24T04:15:23.337Z,100072.22
2024-02-24T04:15:55.669Z,100081.56
2024-02-24T04:16:27.904Z,100072.94
2024-02-24T04:17:00.249Z,100077.50
2024-02-24T04:17:35.249Z,100071.31
2024-02-24T04:18:08.186Z,100083.91
2024-02-24T04:18:43.388Z,100087.88
2024-02-24T04:19:15.658Z,100079.84
2024-02-24T04:19:50.715Z,100081.72
2024-02-24T04:20:25.608Z,100086.25
2024-02-24T04:20:58.017Z,100073.13
2024-02-24T04:21:32.898Z,100072.31
2024-02-24T04:22:05.434Z,100075.81
2024-02-24T04:22:37.780Z,100070.44
2024-02-24T04:23:10.122Z,100061.59
2024-02-24T04:23:45.027Z,100075.00
2024-02-24T04:24:20.461Z,100073.38
2024-02-24T04:24:53.229Z,100079.75
2024-02-24T04:25:25.528Z,100083.50
2024-02-24T04:26:00.330Z,100075.47
2024-02-24T04:26:32.576Z,100073.84
2024-02-24T04:27:05.238Z,100077.31
2024-02-24T04:27:37.646Z,100073.84
2024-02-24T04:28:13.756Z,100068.75
2024-02-24T04:28:46.023Z,100067.91
2024-02-24T04:29:18.198Z,100064.66
2024-02-24T04:29:50.583Z,100068.16
2024-02-24T04:30:25.498Z,100065.25
2024-02-24T04:30:57.771Z,100066.06
2024-02-24T04:31:31.185Z,100070.09
2024-02-24T04:32:06.343Z,100062.88
2024-02-24T04:32:38.706Z,100074.19
2024-02-24T04:33:11.084Z,100080.91
2024-02-24T04:33:43.456Z,100074.50
2024-02-24T04:34:18.479Z,100074.50
2024-02-24T04:34:50.787Z,100074.50
2024-02-24T04:35:23.338Z,100076.34
2024-02-24T04:35:58.285Z,100079.03
2024-02-24T04:36:33.149Z,100081.41
2024-02-24T04:37:08.821Z,100077.66
2024-02-24T04:37:44.913Z,100076.03
2024-02-24T04:38:23.133Z,100077.91
2024-02-24T04:38:55.449Z,100086.97
2024-02-24T04:39:30.272Z,100081.41
2024-02-24T04:40:02.528Z,100073.38
2024-02-24T04:40:38.029Z,100079.75
2024-02-24T04:41:10.389Z,100084.31
2024-02-24T04:41:42.733Z,100075.47
2024-02-24T04:42:15.509Z,100085.34
2024-02-24T04:42:50.422Z,100085.13
2024-02-24T04:43:22.721Z,100077.09
2024-02-24T04:43:55.513Z,100094.78
2024-02-24T04:44:27.987Z,100090.78
2024-02-24T04:45:03.083Z,100089.97
2024-02-24T04:45:36.777Z,100075.00
2024-02-24T04:46:09.138Z,100090.25
2024-02-24T04:46:42.101Z,100086.75
2024-02-24T04:47:17.008Z,100092.09
2024-02-24T04:47:49.905Z,100089.44
2024-02-24T04:48:22.477Z,100086.75
2024-02-24T04:48:57.811Z,100081.41
2024-02-24T04:49:31.589Z,100092.09
2024-02-24T04:50:04.185Z,100089.66
2024-02-24T04:50:36.553Z,100086.44
2024-02-24T04:51:11.405Z,100090.16
2024-02-24T04:51:43.852Z,100086.66
2024-02-24T04:52:16.147Z,100089.91
2024-02-24T04:52:51.270Z,100086.16
2024-02-24T04:53:26.169Z,100085.94
2024-02-24T04:54:00.607Z,100083.56
2024-02-24T04:54:35.444Z,100079.84
2024-02-24T04:55:08.543Z,100078.81
2024-02-24T04:55:43.386Z,100084.72
2024-02-24T04:56:18.160Z,100085.78
2024-02-24T04:56:50.370Z,100079.13
2024-02-24T04:57:22.885Z,100074.59
2024-02-24T04:57:57.651Z,100072.72
2024-02-24T04:58:29.846Z,100083.66
2024-02-24T04:59:02.079Z,100084.72
2024-02-24T04:59:34.354Z,100089.25
2024-02-24T05:00:12.729Z,100087.66
2024-02-24T05:00:44.993Z,100094.88
2024-02-24T05:01:17.721Z,100084.97
2024-02-24T05:01:50.223Z,100090.34
2024-02-24T05:02:25.640Z,100089.50
2024-02-24T05:02:57.889Z,100085.22
2024-02-24T05:03:30.080Z,100084.72
2024-02-24T05:04:02.324Z,100105.09
2024-02-24T05:04:37.216Z,100085.53
2024-02-24T05:05:12.765Z,100099.97
2024-02-24T05:05:45.778Z,100099.41
2024-02-24T05:06:18.080Z,100088.69
2024-02-24T05:06:53.155Z,100105.59
2024-02-24T05:07:25.538Z,100097.53
2024-02-24T05:07:57.848Z,100093.25
2024-02-24T05:08:34.699Z,100103.13
2024-02-24T05:09:09.958Z,100095.34
2024-02-24T05:09:44.941Z,100099.91
2024-02-24T05:10:17.476Z,100105.81
2024-02-24T05:10:52.698Z,100101.84
2024-02-24T05:11:25.983Z,100094.16
2024-02-24T05:11:58.288Z,100109.94
2024-02-24T05:12:30.496Z,100097.13
2024-02-24T05:13:06.465Z,100097.94
2024-02-24T05:13:38.893Z,100102.50
2024-02-24T05:14:11.176Z,100096.56
2024-02-24T05:14:43.785Z,100110.53
2024-02-24T05:15:20.561Z,100117.50
2024-02-24T05:15:53.227Z,100101.34
2024-02-24T05:16:25.649Z,100094.97
2024-02-24T05:16:58.540Z,100103.00
2024-02-24T05:17:31.357Z,100109.13
2024-02-24T05:18:06.826Z,100114.50
2024-02-24T05:18:40.118Z,100111.03
2024-02-24T05:19:12.769Z,100110.44
2024-02-24T05:19:45.060Z,100107.75
2024-02-24T05:20:20.363Z,100102.41
2024-02-24T05:20:52.692Z,100111.50
2024-02-24T05:21:24.949Z,100109.63
2024-02-24T05:21:57.416Z,100105.31
2024-02-24T05:22:34.338Z,100116.84
2024-02-24T05:23:06.710Z,100116.84
2024-02-24T05:23:39.043Z,100117.66
2024-02-24T05:24:11.458Z,100112.88
2024-02-24T05:24:49.692Z,100127.41
2024-02-24T05:25:21.950Z,100116.94
2024-02-24T05:25:54.588Z,100117.50
2024-02-24T05:26:27.706Z,100114.50
2024-02-24T05:27:02.989Z,100111.81
2024-02-24T05:27:35.991Z,100121.25
2024-02-24T05:28:08.345Z,100109.47
2024-02-24T05:28:40.651Z,100119.13
2024-02-24T05:29:15.867Z,100119.94
2024-02-24T05:29:48.615Z,100111.91
2024-02-24T05:30:21.637Z,100103.03
2024-02-24T05:30:54.406Z,100118.06
2024-02-24T05:31:29.232Z,100114.34
2024-02-24T05:32:04.214Z,100116.78
2024-02-24T05:32:36.725Z,100110.63
2024-02-24T05:33:12.305Z,100129.09
2024-02-24T05:33:44.802Z,100091.59
2024-02-24T05:34:17.285Z,100113.03
2024-02-24T05:34:49.777Z,100118.38
2024-02-24T05:35:22.066Z,100132.03
2024-02-24T05:35:56.936Z,100122.97
2024-02-24T05:36:29.235Z,100127.50
2024-02-24T05:37:03.580Z,100107.94
2024-02-24T05:37:38.420Z,100125.63
2024-02-24T05:38:10.925Z,100111.16
2024-02-24T05:38:43.499Z,100132.59
2024-02-24T05:39:15.863Z,100129.91
2024-02-24T05:39:53.736Z,100122.97
2024-02-24T05:40:25.968Z,100127.50
2024-02-24T05:40:58.304Z,100129.91
2024-02-24T05:41:33.120Z,100133.19
2024-02-24T05:42:09.373Z,100124.31
2024-02-24T05:42:42.981Z,100129.69
2024-02-24T05:43:15.231Z,100119.78
2024-02-24T05:43:47.579Z,100135.03
2024-02-24T05:44:22.470Z,100131.56
2024-02-24T05:44:55.011Z,100129.38
2024-02-24T05:45:27.228Z,100132.03
2024-02-24T05:46:02.796Z,100131.22
2024-02-24T05:46:38.144Z,100135.53
2024-02-24T05:47:10.506Z,100131.00
2024-02-24T05:47:42.851Z,100125.06
2024-02-24T05:48:15.292Z,100138.44
2024-02-24T05:48:50.329Z,100138.22
2024-02-24T05:49:22.658Z,100130.72
2024-02-24T05:49:56.430Z,100138.53
2024-02-24T05:50:28.779Z,100134.81
2024-02-24T05:51:03.594Z,100134.81
2024-02-24T05:51:36.042Z,100139.09
2024-02-24T05:52:08.389Z,100144.44
2024-02-24T05:52:40.791Z,100139.91
2024-02-24T05:53:15.642Z,100141.53
2024-02-24T05:53:47.901Z,100140.72
2024-02-24T05:54:20.085Z,100138.03
2024-02-24T05:54:54.895Z,100137.00
2024-02-24T05:55:29.902Z,100133.25
2024-02-24T05:56:02.160Z,100146.66
2024-02-24T05:56:34.670Z,100150.38
2024-02-24T05:57:07.112Z,100142.13
2024-02-24T05:57:41.978Z,100137.00
2024-02-24T05:58:14.252Z,100138.84
2024-02-24T05:58:46.865Z,100145.84
2024-02-24T05:59:19.271Z,100139.16
2024-02-24T05:59:54.543Z,100141.63
2024-02-24T06:00:26.924Z,100142.16
2024-02-24T06:00:59.227Z,100135.53
2024-02-24T06:01:31.509Z,100135.28
2024-02-24T06:02:06.661Z,100141.22
2024-02-24T06:02:39.040Z,100139.34
2024-02-24T06:03:14.054Z,100152.16
2024-02-24T06:03:46.315Z,100141.44
2024-02-24T06:04:22.404Z,100154.59
2024-02-24T06:04:54.586Z,100152.16
2024-02-24T06:05:26.914Z,100149.47
2024-02-24T06:06:01.876Z,100157.50
2024-02-24T06:06:34.271Z,100157.50
2024-02-24T06:07:06.605Z,100157.78
2024-02-24T06:07:42.149Z,100158.00
2024-02-24T06:08:14.492Z,100156.88
2024-02-24T06:08:46.939Z,100156.88
2024-02-24T06:09:21.832Z,100159.78
2024-02-24T06:09:56.673Z,100150.97
2024-02-24T06:10:28.930Z,100161.91
2024-02-24T06:11:03.849Z,100157.38
2024-02-24T06:11:36.301Z,100152.84
2024-02-24T06:12:10.269Z,100161.91
2024-02-24T06:12:45.213Z,100157.38
2024-02-24T06:13:17.972Z,100152.00
2024-02-24T06:13:54.009Z,100143.16
2024-02-24T06:14:26.460Z,100156.56
2024-02-24T06:15:02.409Z,100147.47
2024-02-24T06:15:34.664Z,100155.50
2024-02-24T06:16:08.509Z,100152.84
2024-02-24T06:16:43.407Z,100150.38
2024-02-24T06:17:15.796Z,100151.19
2024-02-24T06:17:50.660Z,100154.44
2024-02-24T06:18:25.158Z,100154.44
2024-02-24T06:19:03.211Z,100156.78
2024-02-24T06:19:35.615Z,100151.44
2024-02-24T06:20:09.437Z,100161.09
2024-02-24T06:20:41.786Z,100152.84
2024-02-24T06:21:16.630Z,100154.19
2024-02-24T06:21:49.001Z,100148.28
2024-02-24T06:22:21.477Z,100155.25
2024-02-24T06:22:54.285Z,100154.19
2024-02-24T06:23:29.101Z,100159.56
2024-02-24T06:24:01.470Z,100157.69